createdAt,value
2023-02-24T00:02:00.913Z,97422.88
2023-02-24T00:04:40.308Z,97418.56
2023-02-24T00:07:10.414Z,97417.34
2023-02-24T00:09:39.452Z,97413.22
2023-02-24T00:12:11.413Z,97412.78
2023-02-24T00:14:41.745Z,97407.78
2023-02-24T00:17:09.230Z,97408.00
2023-02-24T00:19:42.842Z,97404.44
2023-02-24T00:22:09.731Z,97402.34
2023-02-24T00:24:36.817Z,97404.81
2023-02-24T00:27:12.116Z,97399.03
2023-02-24T00:29:41.829Z,97399.72
2023-02-24T00:32:13.448Z,97391.00
2023-02-24T00:34:40.868Z,97394.38
2023-02-24T00:37:07.380Z,97404.59
2023-02-24T00:39:35.745Z,97391.47
2023-02-24T00:42:07.537Z,97400.41
2023-02-24T00:44:36.873Z,97391.50
2023-02-24T00:47:05.634Z,97395.59
2023-02-24T00:49:34.187Z,97393.50
2023-02-24T00:52:00.881Z,97389.16
2023-02-24T00:54:28.470Z,97390.59
2023-02-24T00:56:58.329Z,97397.06
2023-02-24T00:59:24.908Z,97393.50
2023-02-24T01:01:52.002Z,97396.53
2023-02-24T01:04:25.805Z,97395.97
2023-02-24T01:07:03.831Z,97390.81
2023-02-24T01:09:34.397Z,97398.28
2023-02-24T01:12:19.236Z,97385.94
2023-02-24T01:14:53.174Z,97391.47
2023-02-24T01:17:21.801Z,97387.56
2023-02-24T01:19:49.906Z,97393.91
2023-02-24T01:22:21.536Z,97389.13
2023-02-24T01:24:48.539Z,97385.22
2023-02-24T01:27:18.812Z,97382.53
2023-02-24T01:29:47.206Z,97375.00
2023-02-24T01:32:17.648Z,97384.88
2023-02-24T01:34:45.081Z,97375.00
2023-02-24T01:37:16.631Z,97373.44
2023-02-24T01:39:50.210Z,97383.00
2023-02-24T01:42:22.366Z,97380.44
2023-02-24T01:44:49.030Z,97370.31
2023-02-24T01:47:18.404Z,97373.75
2023-02-24T01:49:49.582Z,97367.19
2023-02-24T01:52:30.638Z,97369.44
2023-02-24T01:55:06.648Z,97368.28
2023-02-24T01:57:37.069Z,97363.63
2023-02-24T02:00:19.552Z,97362.94
2023-02-24T02:02:51.488Z,97368.19
2023-02-24T02:05:18.560Z,97358.50
2023-02-24T02:07:50.570Z,97364.81
2023-02-24T02:10:18.534Z,97366.28
2023-02-24T02:12:45.997Z,97376.06
2023-02-24T02:15:22.291Z,97372.25
2023-02-24T02:18:25.968Z,97366.06
2023-02-24T02:21:35.348Z,97368.00
2023-02-24T02:24:25.349Z,97365.97
2023-02-24T02:27:22.682Z,97375.78
2023-02-24T02:30:14.038Z,97373.81
2023-02-24T02:33:02.168Z,97372.88
2023-02-24T02:35:38.473Z,97363.09
2023-02-24T02:38:15.403Z,97370.56
2023-02-24T02:41:03.322Z,97369.22
2023-02-24T02:43:48.217Z,97371.25
2023-02-24T02:46:40.345Z,97370.09
2023-02-24T02:49:37.919Z,97373.56
2023-02-24T02:52:15.563Z,97372.91
2023-02-24T02:54:51.799Z,97380.59
2023-02-24T02:57:25.090Z,97370.44
2023-02-24T03:00:13.259Z,97369.88
2023-02-24T03:02:47.315Z,97366.97
2023-02-24T03:05:20.646Z,97367.44
2023-02-24T03:07:52.420Z,97351.81
2023-02-24T03:10:31.681Z,97362.63
2023-02-24T03:13:02.121Z,97355.03
2023-02-24T03:15:32.799Z,97355.81
2023-02-24T03:18:10.678Z,97358.16
2023-02-24T03:20:44.241Z,97356.69
2023-02-24T03:23:28.516Z,97354.59
2023-02-24T03:26:06.153Z,97341.97
2023-02-24T03:28:39.341Z,97347.31
2023-02-24T03:31:18.152Z,97338.41
2023-02-24T03:34:05.398Z,97344.19
2023-02-24T03:36:34.316Z,97335.41
2023-02-24T03:39:02.169Z,97341.09
2023-02-24T03:41:36.021Z,97327.72
2023-02-24T03:44:03.759Z,97323.94
2023-02-24T03:46:32.014Z,97317.91
2023-02-24T03:49:14.329Z,97320.34
2023-02-24T03:51:44.849Z,97325.44
2023-02-24T03:54:32.759Z,97330.22
2023-02-24T03:57:26.459Z,97331.88
2023-02-24T04:00:25.148Z,97342.22
2023-02-24T04:03:30.294Z,97339.31
2023-02-24T04:06:15.852Z,97347.88
2023-02-24T04:08:56.532Z,97338.81
2023-02-24T04:11:35.016Z,97346.63
2023-02-24T04:14:16.536Z,97334.69
2023-02-24T04:16:59.272Z,97329.34
2023-02-24T04:19:29.795Z,97329.75
2023-02-24T04:21:57.382Z,97330.22
2023-02-24T04:24:29.126Z,97327.97
2023-02-24T04:26:59.191Z,97323.06
2023-02-24T04:29:28.498Z,97316.13
2023-02-24T04:32:02.965Z,97317.72
2023-02-24T04:34:35.348Z,97316.06
2023-02-24T04:37:02.448Z,97307.41
2023-02-24T04:39:31.084Z,97301.63
2023-02-24T04:41:58.153Z,97296.16
2023-02-24T04:44:26.106Z,97306.00
2023-02-24T04:46:54.536Z,97300.63
2023-02-24T04:49:22.497Z,97299.06
2023-02-24T04:51:49.271Z,97300.09
2023-02-24T04:54:18.594Z,97297.00
2023-02-24T04:56:51.172Z,97296.47
2023-02-24T04:59:21.311Z,97289.56
2023-02-24T05:01:51.692Z,97290.94
2023-02-24T05:04:18.674Z,97293.59
2023-02-24T05:06:48.450Z,97292.38
2023-02-24T05:09:20.026Z,97279.00
2023-02-24T05:11:51.931Z,97276.75
2023-02-24T05:14:24.993Z,97273.06
2023-02-24T05:16:51.796Z,97286.88
2023-02-24T05:19:40.605Z,97283.88
2023-02-24T05:22:07.378Z,97280.78
2023-02-24T05:24:35.971Z,97272.41
2023-02-24T05:27:05.547Z,97276.25
2023-02-24T05:29:35.204Z,97271.72
2023-02-24T05:32:04.333Z,97275.94
2023-02-24T05:34:32.556Z,97267.25
2023-02-24T05:37:01.699Z,97264.22
2023-02-24T05:39:28.629Z,97264.63
2023-02-24T05:41:58.745Z,97264.06
2023-02-24T05:44:26.964Z,97261.38
2023-02-24T05:46:58.800Z,97264.47
2023-02-24T05:49:31.370Z,97262.25
2023-02-24T05:52:00.850Z,97258.00
2023-02-24T05:54:31.239Z,97258.81
2023-02-24T05:57:04.587Z,97252.25
2023-02-24T05:59:33.665Z,97245.31
2023-02-24T06:02:07.283Z,97242.22
2023-02-24T06:04:45.949Z,97242.22
2023-02-24T06:07:19.848Z,97238.41
2023-02-24T06:09:54.062Z,97230.38
2023-02-24T06:12:33.993Z,97235.31
2023-02-24T06:15:01.163Z,97225.38
2023-02-24T06:17:30.088Z,97230.84
2023-02-24T06:19:56.733Z,97217.47
2023-02-24T06:22:26.571Z,97221.25
2023-02-24T06:24:54.644Z,97223.50
2023-02-24T06:27:30.848Z,97235.91
2023-02-24T06:29:57.970Z,97234.00
2023-02-24T06:32:26.224Z,97234.88
2023-02-24T06:34:55.584Z,97231.53
2023-02-24T06:37:23.246Z,97236.19
2023-02-24T06:39:52.014Z,97235.84
2023-02-24T06:42:20.361Z,97221.66
2023-02-24T06:44:47.078Z,97227.88
2023-02-24T06:47:16.315Z,97229.09
2023-02-24T06:49:47.270Z,97233.25
2023-02-24T06:52:18.874Z,97227.88
2023-02-24T06:54:48.785Z,97228.75
2023-02-24T06:57:17.537Z,97226.09
2023-02-24T06:59:44.018Z,97228.75
2023-02-24T07:02:10.723Z,97230.56
2023-02-24T07:04:45.494Z,97221.06
2023-02-24T07:07:14.611Z,97220.91
2023-02-24T07:09:42.776Z,97226.59
2023-02-24T07:12:11.364Z,97224.69
2023-02-24T07:14:38.329Z,97218.56
2023-02-24T07:17:05.807Z,97212.97
2023-02-24T07:19:34.493Z,97222.03
2023-02-24T07:22:03.708Z,97215.81
2023-02-24T07:24:40.821Z,97228.59
2023-02-24T07:27:11.494Z,97225.00
2023-02-24T07:29:39.010Z,97228.84
2023-02-24T07:32:12.892Z,97219.50
2023-02-24T07:34:42.514Z,97205.97
2023-02-24T07:37:19.545Z,97211.06
2023-02-24T07:42:45.490Z,97201.44
2023-02-24T07:45:13.078Z,97193.72
2023-02-24T07:47:44.525Z,97190.00
2023-02-24T07:50:14.835Z,97189.59
2023-02-24T07:52:41.759Z,97184.56
2023-02-24T07:55:09.256Z,97187.88
2023-02-24T07:57:37.397Z,97178.59
2023-02-24T08:00:28.363Z,97184.81
2023-02-24T08:02:58.552Z,97189.06
2023-02-24T08:05:27.439Z,97183.84
2023-02-24T08:07:55.690Z,97182.41
2023-02-24T08:10:29.697Z,97181.50
2023-02-24T08:12:57.115Z,97172.13
2023-02-24T08:15:26.438Z,97173.03
2023-02-24T08:18:02.515Z,97170.97
2023-02-24T08:20:36.404Z,97165.41
2023-02-24T08:23:08.569Z,97165.25
2023-02-24T08:25:38.002Z,97175.22
2023-02-24T08:28:13.516Z,97160.50
2023-02-24T08:30:46.153Z,97152.03
2023-02-24T08:33:24.850Z,97145.06
2023-02-24T08:36:01.411Z,97142.72
2023-02-24T08:38:40.296Z,97145.31
2023-02-24T08:41:11.793Z,97137.78
2023-02-24T08:43:40.194Z,97138.69
2023-02-24T08:46:21.194Z,97146.03
2023-02-24T08:48:49.474Z,97140.06
2023-02-24T08:51:28.885Z,97140.31
2023-02-24T08:53:58.968Z,97136.66
2023-02-24T08:56:32.575Z,97135.34
2023-02-24T08:59:05.669Z,97142.03
2023-02-24T09:01:38.122Z,97134.53
2023-02-24T09:04:10.872Z,97128.84
2023-02-24T09:06:48.360Z,97126.19
2023-02-24T09:09:18.407Z,97116.47
2023-02-24T09:12:04.086Z,97114.22
2023-02-24T09:14:36.635Z,97124.06
2023-02-24T09:17:07.097Z,97119.13
2023-02-24T09:19:47.345Z,97121.97
2023-02-24T09:22:42.449Z,97121.09
2023-02-24T09:25:21.197Z,97109.94
2023-02-24T09:27:57.343Z,97111.03
2023-02-24T09:30:37.050Z,97102.44
2023-02-24T09:33:22.648Z,97100.63
2023-02-24T09:35:50.588Z,97097.28
2023-02-24T09:38:20.518Z,97088.56
2023-02-24T09:40:50.709Z,97091.34
2023-02-24T09:43:21.136Z,97092.06
2023-02-24T09:46:00.328Z,97091.53
2023-02-24T09:48:43.683Z,97090.50
2023-02-24T09:51:23.631Z,97071.41
2023-02-24T09:53:53.663Z,97069.75
2023-02-24T09:56:37.384Z,97070.16
2023-02-24T09:59:26.454Z,97067.09
2023-02-24T10:02:04.762Z,97064.25
2023-02-24T10:05:07.115Z,97056.75
2023-02-24T10:07:39.856Z,97053.13
2023-02-24T10:10:35.851Z,97049.31
2023-02-24T10:13:49.303Z,97050.78
2023-02-24T10:16:24.716Z,97040.75
2023-02-24T10:19:16.759Z,97040.56
2023-02-24T10:22:00.320Z,97038.94
2023-02-24T10:24:49.401Z,97032.47
2023-02-24T10:27:17.403Z,97042.06
2023-02-24T10:30:20.028Z,97031.13
2023-02-24T10:32:59.036Z,97029.53
2023-02-24T10:35:34.088Z,97033.94
2023-02-24T10:38:08.694Z,97029.03
2023-02-24T10:40:58.413Z,97020.56
2023-02-24T10:43:33.713Z,97023.19
2023-02-24T10:46:17.430Z,97013.22
2023-02-24T10:48:53.279Z,97013.03
2023-02-24T10:51:32.583Z,97006.25
2023-02-24T10:54:34.065Z,97012.72
2023-02-24T10:57:18.132Z,97005.34
2023-02-24T11:00:16.512Z,96996.09
2023-02-24T11:02:59.420Z,97001.53
2023-02-24T11:05:49.009Z,96997.41
2023-02-24T11:08:38.370Z,96993.28
2023-02-24T11:11:25.653Z,96990.03
2023-02-24T11:14:14.542Z,96989.66
2023-02-24T11:17:08.226Z,96981.69
2023-02-24T11:19:50.606Z,96975.97
2023-02-24T11:22:22.120Z,96966.94
2023-02-24T11:24:50.548Z,96958.06
2023-02-24T11:27:21.376Z,96958.16
2023-02-24T11:30:06.344Z,96962.72
2023-02-24T11:32:58.194Z,96956.56
2023-02-24T11:35:48.945Z,96947.41
2023-02-24T11:38:40.465Z,96942.19
2023-02-24T11:41:26.071Z,96934.59
2023-02-24T11:44:14.677Z,96921.41
2023-02-24T11:46:47.134Z,96917.91
2023-02-24T11:49:37.914Z,96904.47
2023-02-24T11:52:10.231Z,96909.13
2023-02-24T11:54:49.802Z,96897.22
2023-02-24T11:57:51.785Z,96898.88
2023-02-24T12:00:21.161Z,96887.06
2023-02-24T12:02:59.447Z,96882.53
2023-02-24T12:05:37.262Z,96881.25
2023-02-24T12:08:16.863Z,96880.94
2023-02-24T12:10:51.180Z,96868.41
2023-02-24T12:13:27.870Z,96868.88
2023-02-24T12:16:02.577Z,96866.16
2023-02-24T12:18:45.116Z,96865.13
2023-02-24T12:21:31.877Z,96850.84
2023-02-24T12:23:59.340Z,96847.00
2023-02-24T12:26:27.355Z,96851.34
2023-02-24T12:29:37.418Z,96850.56
2023-02-24T12:32:15.937Z,96849.31
2023-02-24T12:35:14.286Z,96828.72
2023-02-24T12:38:25.543Z,96838.19
2023-02-24T12:41:19.837Z,96832.56
2023-02-24T12:44:02.417Z,96828.03
2023-02-24T12:46:37.886Z,96829.41
2023-02-24T12:49:22.658Z,96818.34
2023-02-24T12:52:15.449Z,96811.22
2023-02-24T12:55:00.089Z,96814.19
2023-02-24T12:57:50.540Z,96810.19
2023-02-24T13:00:39.746Z,96816.66
2023-02-24T13:03:18.861Z,96806.72
2023-02-24T13:05:52.253Z,96802.53
2023-02-24T13:08:24.324Z,96797.69
2023-02-24T13:11:05.356Z,96787.91
2023-02-24T13:13:48.959Z,96780.25
2023-02-24T13:19:27.403Z,96777.94
2023-02-24T13:22:20.670Z,96776.00
2023-02-24T13:25:09.127Z,96765.28
2023-02-24T13:27:38.944Z,96765.41
2023-02-24T13:30:11.566Z,96762.00
2023-02-24T13:32:45.102Z,96754.13
2023-02-24T13:35:15.005Z,96753.19
2023-02-24T13:37:43.789Z,96750.81
2023-02-24T13:40:24.934Z,96738.50
2023-02-24T13:42:57.758Z,96748.94
2023-02-24T13:45:31.400Z,96741.22
2023-02-24T13:48:16.448Z,96748.88
2023-02-24T13:50:50.572Z,96738.50
2023-02-24T13:53:31.240Z,96741.00
2023-02-24T13:56:16.971Z,96731.78
2023-02-24T13:58:56.240Z,96731.50
2023-02-24T14:01:28.465Z,96725.81
2023-02-24T14:04:14.863Z,96721.47
2023-02-24T14:06:50.065Z,96727.06
2023-02-24T14:09:22.697Z,96727.16
2023-02-24T14:11:54.035Z,96725.63
2023-02-24T14:14:21.268Z,96724.66
2023-02-24T14:16:50.848Z,96724.81
2023-02-24T14:19:20.263Z,96726.13
2023-02-24T14:21:50.275Z,96723.75
2023-02-24T14:24:18.439Z,96718.72
2023-02-24T14:26:53.175Z,96709.13
2023-02-24T14:29:27.119Z,96703.84
2023-02-24T14:31:55.629Z,96705.16
2023-02-24T14:34:25.195Z,96706.69
2023-02-24T14:36:55.138Z,96694.78
2023-02-24T14:39:34.061Z,96705.53
2023-02-24T14:42:13.423Z,96701.69
2023-02-24T14:44:48.273Z,96701.75
2023-02-24T14:47:17.035Z,96712.59
2023-02-24T14:50:04.179Z,96713.44
2023-02-24T14:52:35.821Z,96703.91
2023-02-24T14:55:09.192Z,96708.34
2023-02-24T14:57:43.280Z,96711.59
2023-02-24T15:00:27.573Z,96699.22
2023-02-24T15:03:06.550Z,96700.06
2023-02-24T15:05:33.470Z,96703.88
2023-02-24T15:08:02.362Z,96698.03
2023-02-24T15:10:31.291Z,96696.63
2023-02-24T15:13:08.801Z,96702.69
2023-02-24T15:15:39.291Z,96706.75
2023-02-24T15:18:24.436Z,96699.88
2023-02-24T15:21:03.461Z,96692.69
2023-02-24T15:23:38.655Z,96693.56
2023-02-24T15:26:08.940Z,96688.63
2023-02-24T15:28:37.205Z,96692.19
2023-02-24T15:31:20.052Z,96689.19
2023-02-24T15:33:58.128Z,96692.34
2023-02-24T15:36:34.262Z,96696.31
2023-02-24T15:39:20.472Z,96685.16
2023-02-24T15:41:53.437Z,96684.44
2023-02-24T15:44:32.977Z,96680.19
2023-02-24T15:47:12.264Z,96675.13
2023-02-24T15:49:38.796Z,96682.44
2023-02-24T15:52:09.936Z,96668.06
2023-02-24T15:54:39.005Z,96661.47
2023-02-24T15:57:10.355Z,96660.31
2023-02-24T15:59:36.857Z,96663.81
2023-02-24T16:02:05.276Z,96660.44
2023-02-24T16:04:31.760Z,96658.94
2023-02-24T16:06:58.519Z,96666.03
2023-02-24T16:09:42.741Z,96665.41
2023-02-24T16:12:15.417Z,96662.47
2023-02-24T16:14:42.911Z,96654.78
2023-02-24T16:17:42.489Z,96653.25
2023-02-24T16:20:15.032Z,96652.06
2023-02-24T16:22:41.856Z,96638.84
2023-02-24T16:25:09.417Z,96629.88
2023-02-24T16:27:36.307Z,96632.56
2023-02-24T16:30:03.822Z,96632.31
2023-02-24T16:32:30.559Z,96620.84
2023-02-24T16:34:57.310Z,96621.00
2023-02-24T16:37:29.047Z,96620.00
2023-02-24T16:39:56.086Z,96620.59
2023-02-24T16:42:31.193Z,96622.72
2023-02-24T16:44:59.460Z,96622.44
2023-02-24T16:47:26.105Z,96622.16
2023-02-24T16:49:56.237Z,96622.69
2023-02-24T16:52:24.999Z,96618.16
2023-02-24T16:54:51.604Z,96614.38
2023-02-24T16:57:18.209Z,96621.78
2023-02-24T16:59:51.485Z,96615.28
2023-02-24T17:02:24.173Z,96607.59
2023-02-24T17:04:56.366Z,96613.81
2023-02-24T17:07:22.873Z,96607.63
2023-02-24T17:09:49.331Z,96615.34
2023-02-24T17:12:21.727Z,96611.53
2023-02-24T17:14:48.446Z,96616.56
2023-02-24T17:17:15.086Z,96613.09
2023-02-24T17:19:41.620Z,96612.31
2023-02-24T17:22:08.190Z,96607.72
2023-02-24T17:24:34.653Z,96601.56
2023-02-24T17:27:03.117Z,96606.25
2023-02-24T17:29:29.899Z,96601.63
2023-02-24T17:31:57.498Z,96602.41
2023-02-24T17:34:26.457Z,96603.19
2023-02-24T17:36:53.285Z,96600.91
2023-02-24T17:39:19.773Z,96610.56
2023-02-24T17:41:48.551Z,96619.44
2023-02-24T17:44:15.091Z,96621.75
2023-02-24T17:46:41.657Z,96621.41
2023-02-24T17:49:14.929Z,96630.25
2023-02-24T17:51:41.419Z,96631.03
2023-02-24T17:54:08.494Z,96630.66
2023-02-24T17:56:36.811Z,96635.66
2023-02-24T17:59:03.341Z,96636.41
2023-02-24T18:01:30.070Z,96640.66
2023-02-24T18:04:01.347Z,96641.06
2023-02-24T18:06:27.837Z,96647.59
2023-02-24T18:08:55.123Z,96644.91
2023-02-24T18:11:23.454Z,96641.81
2023-02-24T18:13:52.646Z,96643.41
2023-02-24T18:16:19.463Z,96632.63
2023-02-24T18:18:46.053Z,96637.28
2023-02-24T18:21:12.591Z,96623.03
2023-02-24T18:23:40.547Z,96617.25
2023-02-24T18:26:12.657Z,96626.53
2023-02-24T18:28:39.737Z,96625.00
2023-02-24T18:31:11.940Z,96630.44
2023-02-24T18:33:42.764Z,96629.66
2023-02-24T18:36:09.770Z,96626.19
2023-02-24T18:38:36.596Z,96628.88
2023-02-24T18:41:05.977Z,96616.53
2023-02-24T18:43:33.404Z,96616.91
2023-02-24T18:46:01.766Z,96610.72
2023-02-24T18:48:29.478Z,96618.84
2023-02-24T18:50:57.950Z,96617.31
2023-02-24T18:53:26.245Z,96621.16
2023-02-24T18:56:01.834Z,96614.63
2023-02-24T18:58:30.010Z,96615.78
2023-02-24T19:01:00.743Z,96610.78
2023-02-24T19:03:35.300Z,96615.81
2023-02-24T19:06:01.830Z,96610.03
2023-02-24T19:08:28.381Z,96611.19
2023-02-24T19:10:54.921Z,96611.97
2023-02-24T19:13:22.609Z,96608.09
2023-02-24T19:15:49.544Z,96615.03
2023-02-24T19:18:17.170Z,96611.16
2023-02-24T19:20:44.595Z,96615.38
2023-02-24T19:23:11.440Z,96618.88
2023-02-24T19:25:37.989Z,96617.31
2023-02-24T19:28:08.595Z,96617.31
2023-02-24T19:30:35.120Z,96619.63
2023-02-24T19:33:01.759Z,96621.91
2023-02-24T19:35:28.424Z,96619.97
2023-02-24T19:37:54.943Z,96626.53
2023-02-24T19:40:27.178Z,96624.56
2023-02-24T19:42:53.641Z,96626.91
2023-02-24T19:45:20.157Z,96627.28
2023-02-24T19:47:47.140Z,96623.41
2023-02-24T19:50:15.021Z,96627.63
2023-02-24T19:52:44.292Z,96618.38
2023-02-24T19:55:11.858Z,96624.91
2023-02-24T19:57:38.784Z,96620.28
2023-02-24T20:00:07.485Z,96618.72
2023-02-24T20:02:35.659Z,96619.50
2023-02-24T20:05:02.424Z,96619.50
2023-02-24T20:07:29.724Z,96628.75
2023-02-24T20:09:56.432Z,96622.97
2023-02-24T20:12:22.953Z,96622.22
2023-02-24T20:14:50.450Z,96636.53
2023-02-24T20:17:21.978Z,96645.88
2023-02-24T20:19:48.589Z,96642.50
2023-02-24T20:22:15.117Z,96646.44
2023-02-24T20:24:41.792Z,96649.19
2023-02-24T20:27:08.410Z,96646.84
2023-02-24T20:29:40.833Z,96655.38
2023-02-24T20:32:09.510Z,96654.63
2023-02-24T20:34:37.842Z,96658.88
2023-02-24T20:37:06.543Z,96660.03
2023-02-24T20:39:33.714Z,96661.97
2023-02-24T20:42:00.893Z,96665.44
2023-02-24T20:44:27.845Z,96663.13
2023-02-24T20:46:56.393Z,96661.97
2023-02-24T20:49:23.781Z,96661.63
2023-02-24T20:51:50.617Z,96664.69
2023-02-24T20:54:17.474Z,96657.75
2023-02-24T20:56:45.668Z,96658.53
2023-02-24T20:59:15.271Z,96650.47
2023-02-24T21:01:46.476Z,96657.75
2023-02-24T21:04:14.864Z,96661.63
2023-02-24T21:06:41.461Z,96655.44
2023-02-24T21:09:08.081Z,96658.16
2023-02-24T21:11:34.675Z,96656.25
2023-02-24T21:14:01.364Z,96661.63
2023-02-24T21:16:28.371Z,96663.53
2023-02-24T21:18:57.998Z,96668.53
2023-02-24T21:21:24.890Z,96671.63
2023-02-24T21:23:51.591Z,96673.16
2023-02-24T21:26:19.012Z,96670.09
2023-02-24T21:28:46.469Z,96670.50
2023-02-24T21:31:29.309Z,96668.19
2023-02-24T21:33:58.388Z,96674.34
2023-02-24T21:36:26.186Z,96673.97
2023-02-24T21:38:56.064Z,96676.28
2023-02-24T21:41:23.670Z,96690.50
2023-02-24T21:43:55.279Z,96684.75
2023-02-24T21:46:28.578Z,96683.59
2023-02-24T21:48:58.682Z,96684.38
2023-02-24T21:51:27.052Z,96685.50
2023-02-24T21:53:58.610Z,96692.06
2023-02-24T21:56:30.144Z,96687.84
2023-02-24T21:59:03.466Z,96693.22
2023-02-24T22:01:33.527Z,96693.22
2023-02-24T22:04:02.903Z,96692.06
2023-02-24T22:06:33.382Z,96696.69
2023-02-24T22:09:01.290Z,96707.06
2023-02-24T22:11:31.366Z,96715.53
2023-02-24T22:14:04.021Z,96713.59
2023-02-24T22:16:30.629Z,96712.84
2023-02-24T22:18:59.079Z,96705.53
2023-02-24T22:21:29.208Z,96703.22
2023-02-24T22:24:01.256Z,96703.97
2023-02-24T22:26:29.564Z,96699.75
2023-02-24T22:29:00.417Z,96693.97
2023-02-24T22:31:30.765Z,96701.66
2023-02-24T22:33:58.636Z,96706.25
2023-02-24T22:36:27.805Z,96708.19
2023-02-24T22:38:56.045Z,96710.13
2023-02-24T22:41:25.993Z,96709.34
2023-02-24T22:43:55.803Z,96710.13
2023-02-24T22:46:34.168Z,96713.22
2023-02-24T22:49:01.534Z,96704.72
2023-02-24T22:51:30.210Z,96703.97
2023-02-24T22:53:56.988Z,96707.03
2023-02-24T22:56:28.476Z,96707.03
2023-02-24T22:58:55.406Z,96707.44
2023-02-24T23:01:33.100Z,96713.19
2023-02-24T23:04:01.351Z,96717.41
2023-02-24T23:06:30.325Z,96721.28
2023-02-24T23:09:00.864Z,96718.19
2023-02-24T23:11:32.969Z,96720.47
2023-02-24T23:14:07.972Z,96725.09
2023-02-24T23:16:35.215Z,96735.88
2023-02-24T23:19:06.010Z,96750.84
2023-02-24T23:21:40.598Z,96752.34
2023-02-24T23:24:11.095Z,96756.88
2023-02-24T23:26:47.970Z,96762.56
2023-02-24T23:29:17.400Z,96744.06
2023-02-24T23:31:44.620Z,96752.06
2023-02-24T23:34:12.294Z,96761.22
2023-02-24T23:36:43.524Z,96766.59
2023-02-24T23:39:12.394Z,96765.66
2023-02-24T23:41:41.266Z,96766.97
2023-02-24T23:44:08.271Z,96771.88
2023-02-24T23:46:36.985Z,96782.13
2023-02-24T23:49:04.896Z,96782.88
2023-02-24T23:51:47.102Z,96792.72
2023-02-24T23:54:23.624Z,96791.91
2023-02-24T23:56:50.390Z,96788.84
2023-02-24T23:59:17.013Z,96788.84
